Time,TemperatureF,DewpointF,PressureIn,WindDirection,WindDirectionDegrees,WindSpeedMPH,WindSpeedGustMPH,Humidity,HourlyPrecipIn,Conditions,Clouds,dailyrainin,SoftwareType,DateUTC
2014-01-11 00:01:00,22.8,21.0,30.13,SSE,157,0.0,1.0,93,0.00,,,0.00,Rainwise IP-100,2014-01-11 05:01:00,
2014-01-11 00:02:00,22.6,21.0,30.13,SSE,157,0.0,0.0,93,0.00,,,0.00,Rainwise IP-100,2014-01-11 05:02:00,
2014-01-11 00:06:00,22.4,21.0,30.13,SSE,157,0.0,0.0,93,0.00,,,0.00,Rainwise IP-100,2014-01-11 05:06:00,
2014-01-11 00:07:00,22.5,21.0,30.12,SSE,157,1.0,0.0,93,0.00,,,0.00,Rainwise IP-100,2014-01-11 05:07:00,
2014-01-11 00:08:00,22.4,21.0,30.12,SSE,157,0.0,1.0,93,0.00,,,0.00,Rainwise IP-100,2014-01-11 05:08:00,
2014-01-11 00:13:00,22.1,21.0,30.11,SSE,157,0.0,1.0,93,0.00,,,0.00,Rainwise IP-100,2014-01-11 05:13:00,
2014-01-11 00:18:00,21.8,21.0,30.11,SSE,157,0.0,1.0,93,0.00,,,0.00,Rainwise IP-100,2014-01-11 05:18:00,
2014-01-11 00:23:00,22.2,21.0,30.10,NW,315,0.0,2.0,93,0.00,,,0.00,Rainwise IP-100,2014-01-11 05:23:00,
2014-01-11 00:28:00,22.7,21.0,30.10,North,360,2.0,2.0,93,0.00,,,0.00,Rainwise IP-100,2014-01-11 05:28:00,
2014-01-11 00:33:00,22.3,21.0,30.10,SE,135,2.0,2.0,93,0.00,,,0.00,Rainwise IP-100,2014-01-11 05:33:00,
2014-01-11 00:38:00,21.8,21.0,30.10,SE,135,0.0,2.0,93,0.00,,,0.00,Rainwise IP-100,2014-01-11 05:38:00,
2014-01-11 00:43:00,21.9,21.0,30.09,SE,135,0.0,0.0,93,0.00,,,0.00,Rainwise IP-100,2014-01-11 05:43:00,
2014-01-11 00:48:00,21.9,21.0,30.09,SE,135,1.0,2.0,93,0.00,,,0.00,Rainwise IP-100,2014-01-11 05:48:00,
2014-01-11 00:53:00,21.6,21.0,30.09,SE,135,0.0,2.0,93,0.00,,,0.00,Rainwise IP-100,2014-01-11 05:53:00,
2014-01-11 00:58:00,21.3,18.0,30.09,SE,135,1.0,0.0,93,0.00,,,0.00,Rainwise IP-100,2014-01-11 05:58:00,
2014-01-11 01:03:00,21.5,21.0,30.08,SE,135,2.0,2.0,93,0.00,,,0.00,Rainwise IP-100,2014-01-11 06:03:00,
2014-01-11 01:09:00,21.0,18.0,30.09,SE,135,0.0,2.0,93,0.00,,,0.00,Rainwise IP-100,2014-01-11 06:09:00,
2014-01-11 01:14:00,21.1,18.0,30.09,SE,135,1.0,2.0,93,0.00,,,0.00,Rainwise IP-100,2014-01-11 06:14:00,
2014-01-11 01:19:00,21.1,18.0,30.08,SE,135,0.0,2.0,93,0.00,,,0.00,Rainwise IP-100,2014-01-11 06:19:00,
2014-01-11 01:24:00,21.3,18.0,30.08,SE,135,0.0,2.0,93,0.00,,,0.00,Rainwise IP-100,2014-01-11 06:24:00,
2014-01-11 01:29:00,21.3,18.0,30.07,SE,135,1.0,2.0,93,0.00,,,0.00,Rainwise IP-100,2014-01-11 06:29:00,
2014-01-11 01:34:00,20.9,18.0,30.07,SE,135,1.0,2.0,93,0.00,,,0.00,Rainwise IP-100,2014-01-11 06:34:00,
2014-01-11 01:39:00,20.8,18.0,30.07,ESE,112,2.0,2.0,93,0.00,,,0.00,Rainwise IP-100,2014-01-11 06:39:00,
2014-01-11 01:44:00,20.8,18.0,30.07,ESE,112,3.0,3.0,93,0.00,,,0.00,Rainwise IP-100,2014-01-11 06:44:00,
2014-01-11 01:49:00,20.6,18.0,30.06,South,180,1.0,7.0,93,0.00,,,0.00,Rainwise IP-100,2014-01-11 06:49:00,
2014-01-11 01:54:00,20.4,18.0,30.07,NW,315,2.0,4.0,93,0.00,,,0.00,Rainwise IP-100,2014-01-11 06:54:00,
2014-01-11 01:59:00,20.5,18.0,30.06,ESE,112,2.0,3.0,93,0.00,,,0.00,Rainwise IP-100,2014-01-11 06:59:00,
2014-01-11 02:04:00,20.2,18.0,30.05,SSE,157,0.0,3.0,93,0.00,,,0.00,Rainwise IP-100,2014-01-11 07:04:00,
2014-01-11 02:10:00,20.2,18.0,30.05,SW,225,4.0,6.0,93,0.00,,,0.00,Rainwise IP-100,2014-01-11 07:10:00,
2014-01-11 02:15:00,20.9,18.0,30.05,NW,315,2.0,7.0,93,0.00,,,0.00,Rainwise IP-100,2014-01-11 07:15:00,
2014-01-11 02:20:00,21.8,21.0,30.04,West,270,1.0,11.0,93,0.00,,,0.00,Rainwise IP-100,2014-01-11 07:20:00,
2014-01-11 02:25:00,21.6,21.0,30.03,NNW,337,0.0,4.0,93,0.00,,,0.00,Rainwise IP-100,2014-01-11 07:25:00,
2014-01-11 02:30:00,21.2,18.0,30.02,SW,225,2.0,4.0,93,0.00,,,0.00,Rainwise IP-100,2014-01-11 07:30:00,
2014-01-11 02:35:00,21.6,21.0,30.03,West,270,2.0,5.0,93,0.00,,,0.00,Rainwise IP-100,2014-01-11 07:35:00,
2014-01-11 02:40:00,22.2,21.0,30.02,North,360,1.0,4.0,93,0.00,,,0.00,Rainwise IP-100,2014-01-11 07:40:00,
2014-01-11 02:45:00,24.4,23.0,30.01,North,360,2.0,7.0,93,0.00,,,0.00,Rainwise IP-100,2014-01-11 07:45:00,
2014-01-11 02:50:00,27.7,26.0,30.00,WSW,247,3.0,5.0,94,0.00,,,0.00,Rainwise IP-100,2014-01-11 07:50:00,
2014-01-11 02:55:00,30.3,29.0,29.99,NW,315,0.0,9.0,94,0.00,,,0.00,Rainwise IP-100,2014-01-11 07:55:00,
2014-01-11 03:00:00,32.7,32.0,29.98,SE,135,6.0,9.0,95,0.00,,,0.00,Rainwise IP-100,2014-01-11 08:00:00,
2014-01-11 03:05:00,37.5,37.0,29.98,South,180,4.0,16.0,95,0.00,,,0.00,Rainwise IP-100,2014-01-11 08:05:00,
2014-01-11 03:11:00,40.4,39.0,29.98,SSE,157,7.0,21.0,96,0.00,,,0.00,Rainwise IP-100,2014-01-11 08:11:00,
2014-01-11 03:16:00,42.2,41.0,29.98,SE,135,8.0,17.0,96,0.00,,,0.00,Rainwise IP-100,2014-01-11 08:16:00,
2014-01-11 03:21:00,42.1,41.0,29.98,SE,135,6.0,16.0,96,0.00,,,0.00,Rainwise IP-100,2014-01-11 08:21:00,
2014-01-11 03:26:00,42.3,41.0,29.99,South,180,7.0,19.0,96,0.00,,,0.00,Rainwise IP-100,2014-01-11 08:26:00,
2014-01-11 03:31:00,42.1,41.0,29.99,SSE,157,6.0,12.0,96,0.06,,,0.01,Rainwise IP-100,2014-01-11 08:31:00,
2014-01-11 03:36:00,41.9,41.0,29.99,South,180,10.0,12.0,96,0.06,,,0.01,Rainwise IP-100,2014-01-11 08:36:00,
2014-01-11 03:41:00,42.4,41.0,29.99,SSE,157,10.0,14.0,95,0.00,,,0.01,Rainwise IP-100,2014-01-11 08:41:00,
2014-01-11 03:46:00,42.8,41.0,29.98,South,180,9.0,13.0,94,0.00,,,0.01,Rainwise IP-100,2014-01-11 08:46:00,
2014-01-11 03:51:00,42.4,41.0,29.98,South,180,6.0,12.0,95,0.00,,,0.01,Rainwise IP-100,2014-01-11 08:51:00,
2014-01-11 03:56:00,42.4,41.0,29.98,SSE,157,7.0,11.0,95,0.00,,,0.01,Rainwise IP-100,2014-01-11 08:56:00,
2014-01-11 04:01:00,42.5,41.0,29.97,SSE,157,9.0,10.0,93,0.00,,,0.01,Rainwise IP-100,2014-01-11 09:01:00,
2014-01-11 04:06:00,42.4,41.0,29.97,South,180,6.0,11.0,96,0.00,,,0.01,Rainwise IP-100,2014-01-11 09:06:00,
2014-01-11 04:12:00,41.8,41.0,29.97,SE,135,4.0,7.0,96,0.00,,,0.01,Rainwise IP-100,2014-01-11 09:12:00,
2014-01-11 04:17:00,41.8,41.0,29.97,SE,135,5.0,11.0,96,0.00,,,0.01,Rainwise IP-100,2014-01-11 09:17:00,
2014-01-11 04:22:00,41.6,41.0,29.96,ESE,112,3.0,9.0,96,0.00,,,0.01,Rainwise IP-100,2014-01-11 09:22:00,
2014-01-11 04:27:00,41.7,41.0,29.95,SE,135,4.0,6.0,96,0.06,,,0.02,Rainwise IP-100,2014-01-11 09:27:00,
2014-01-11 04:32:00,41.2,40.0,29.95,SE,135,0.0,5.0,96,0.06,,,0.02,Rainwise IP-100,2014-01-11 09:32:00,
2014-01-11 04:37:00,40.3,39.0,29.95,NW,315,1.0,2.0,96,0.06,,,0.03,Rainwise IP-100,2014-01-11 09:37:00,
2014-01-11 04:42:00,39.9,39.0,29.94,North,360,0.0,3.0,96,0.06,,,0.04,Rainwise IP-100,2014-01-11 09:42:00,
2014-01-11 04:47:00,39.9,39.0,29.94,NW,315,2.0,4.0,96,0.06,,,0.04,Rainwise IP-100,2014-01-11 09:47:00,
2014-01-11 04:52:00,39.8,39.0,29.93,NW,315,2.0,3.0,96,0.06,,,0.04,Rainwise IP-100,2014-01-11 09:52:00,
2014-01-11 04:57:00,39.2,38.0,29.92,ENE,67,2.0,2.0,96,0.00,,,0.04,Rainwise IP-100,2014-01-11 09:57:00,
2014-01-11 05:02:00,39.7,39.0,29.92,East,90,4.0,6.0,96,0.06,,,0.05,Rainwise IP-100,2014-01-11 10:02:00,
2014-01-11 05:07:00,40.9,40.0,29.91,SE,135,0.0,10.0,96,0.06,,,0.05,Rainwise IP-100,2014-01-11 10:07:00,
2014-01-11 05:13:00,41.0,40.0,29.91,North,360,2.0,4.0,96,0.00,,,0.05,Rainwise IP-100,2014-01-11 10:13:00,
2014-01-11 05:18:00,40.5,40.0,29.90,NNW,337,5.0,5.0,96,0.00,,,0.05,Rainwise IP-100,2014-01-11 10:18:00,
2014-01-11 05:23:00,40.5,40.0,29.90,NE,45,3.0,5.0,96,0.00,,,0.05,Rainwise IP-100,2014-01-11 10:23:00,
2014-01-11 05:28:00,42.7,42.0,29.90,NNE,22,1.0,10.0,96,0.00,,,0.05,Rainwise IP-100,2014-01-11 10:28:00,
2014-01-11 05:33:00,42.7,42.0,29.89,North,360,3.0,3.0,96,0.00,,,0.05,Rainwise IP-100,2014-01-11 10:33:00,
2014-01-11 05:38:00,42.6,42.0,29.89,NW,315,3.0,4.0,96,0.00,,,0.05,Rainwise IP-100,2014-01-11 10:38:00,
2014-01-11 05:43:00,42.9,42.0,29.89,NE,45,1.0,7.0,96,0.00,,,0.05,Rainwise IP-100,2014-01-11 10:43:00,
2014-01-11 05:48:00,42.6,42.0,29.88,SW,225,0.0,5.0,96,0.00,,,0.05,Rainwise IP-100,2014-01-11 10:48:00,
2014-01-11 05:53:00,41.9,41.0,29.88,SW,225,3.0,3.0,96,0.00,,,0.05,Rainwise IP-100,2014-01-11 10:53:00,
2014-01-11 05:58:00,41.5,41.0,29.88,ENE,67,0.0,4.0,96,0.00,,,0.05,Rainwise IP-100,2014-01-11 10:58:00,
2014-01-11 06:03:00,42.7,42.0,29.87,ESE,112,7.0,14.0,96,0.00,,,0.05,Rainwise IP-100,2014-01-11 11:03:00,
2014-01-11 06:08:00,42.9,42.0,29.87,SSE,157,4.0,13.0,96,0.00,,,0.05,Rainwise IP-100,2014-01-11 11:08:00,
2014-01-11 06:14:00,43.6,43.0,29.87,South,180,6.0,24.0,96,0.06,,,0.06,Rainwise IP-100,2014-01-11 11:14:00,
2014-01-11 06:19:00,43.9,43.0,29.87,South,180,5.0,16.0,96,0.06,,,0.06,Rainwise IP-100,2014-01-11 11:19:00,
2014-01-11 06:24:00,44.1,43.0,29.87,SW,225,11.0,14.0,96,0.00,,,0.06,Rainwise IP-100,2014-01-11 11:24:00,
2014-01-11 06:29:00,44.2,43.0,29.87,SE,135,7.0,11.0,96,0.00,,,0.06,Rainwise IP-100,2014-01-11 11:29:00,
2014-01-11 06:34:00,43.6,43.0,29.87,SE,135,5.0,11.0,96,0.06,,,0.07,Rainwise IP-100,2014-01-11 11:34:00,
2014-01-11 06:39:00,42.9,42.0,29.86,South,180,6.0,9.0,96,0.12,,,0.08,Rainwise IP-100,2014-01-11 11:39:00,
2014-01-11 06:44:00,43.3,42.0,29.86,SSE,157,9.0,9.0,96,0.06,,,0.08,Rainwise IP-100,2014-01-11 11:44:00,
2014-01-11 06:49:00,42.9,42.0,29.86,SSW,202,0.0,11.0,96,0.00,,,0.08,Rainwise IP-100,2014-01-11 11:49:00,
2014-01-11 06:54:00,43.4,42.0,29.85,SE,135,4.0,9.0,96,0.00,,,0.08,Rainwise IP-100,2014-01-11 11:54:00,
2014-01-11 06:59:00,42.7,42.0,29.84,SW,225,2.0,4.0,96,0.00,,,0.08,Rainwise IP-100,2014-01-11 11:59:00,
2014-01-11 07:04:00,42.4,41.0,29.83,North,360,2.0,3.0,96,0.00,,,0.08,Rainwise IP-100,2014-01-11 12:04:00,
2014-01-11 07:09:00,42.6,42.0,29.84,West,270,4.0,6.0,96,0.00,,,0.08,Rainwise IP-100,2014-01-11 12:09:00,
2014-01-11 07:15:00,42.8,42.0,29.83,SW,225,2.0,6.0,96,0.00,,,0.08,Rainwise IP-100,2014-01-11 12:15:00,
2014-01-11 07:20:00,42.9,42.0,29.83,NE,45,2.0,5.0,96,0.00,,,0.08,Rainwise IP-100,2014-01-11 12:20:00,
2014-01-11 07:25:00,42.7,42.0,29.82,WSW,247,1.0,5.0,96,0.00,,,0.08,Rainwise IP-100,2014-01-11 12:25:00,
2014-01-11 07:30:00,43.1,42.0,29.82,WSW,247,2.0,10.0,96,0.00,,,0.08,Rainwise IP-100,2014-01-11 12:30:00,
2014-01-11 07:35:00,43.3,42.0,29.82,West,270,0.0,4.0,96,0.00,,,0.08,Rainwise IP-100,2014-01-11 12:35:00,
2014-01-11 07:40:00,43.7,43.0,29.82,ESE,112,2.0,7.0,96,0.00,,,0.08,Rainwise IP-100,2014-01-11 12:40:00,
2014-01-11 07:45:00,43.4,42.0,29.81,East,90,2.0,10.0,96,0.00,,,0.08,Rainwise IP-100,2014-01-11 12:45:00,
2014-01-11 07:50:00,42.9,42.0,29.81,SSE,157,2.0,4.0,96,0.00,,,0.08,Rainwise IP-100,2014-01-11 12:50:00,
2014-01-11 07:55:00,43.3,42.0,29.80,SW,225,2.0,7.0,96,0.00,,,0.08,Rainwise IP-100,2014-01-11 12:55:00,
2014-01-11 08:00:00,43.9,43.0,29.80,NE,45,3.0,7.0,96,0.00,,,0.08,Rainwise IP-100,2014-01-11 13:00:00,
2014-01-11 08:05:00,44.4,43.0,29.79,WSW,247,3.0,7.0,96,0.00,,,0.08,Rainwise IP-100,2014-01-11 13:05:00,
2014-01-11 08:10:00,44.7,44.0,29.80,WSW,247,5.0,6.0,96,0.00,,,0.08,Rainwise IP-100,2014-01-11 13:10:00,
2014-01-11 08:16:00,44.9,44.0,29.80,SE,135,0.0,7.0,96,0.00,,,0.08,Rainwise IP-100,2014-01-11 13:16:00,
2014-01-11 08:21:00,43.9,43.0,29.80,SSE,157,7.0,7.0,96,0.00,,,0.08,Rainwise IP-100,2014-01-11 13:21:00,
2014-01-11 08:26:00,44.6,44.0,29.79,South,180,6.0,8.0,96,0.00,,,0.08,Rainwise IP-100,2014-01-11 13:26:00,
2014-01-11 08:31:00,45.6,45.0,29.79,SSW,202,1.0,9.0,97,0.00,,,0.08,Rainwise IP-100,2014-01-11 13:31:00,
2014-01-11 08:36:00,45.5,45.0,29.79,West,270,2.0,4.0,97,0.00,,,0.08,Rainwise IP-100,2014-01-11 13:36:00,
2014-01-11 08:41:00,45.4,44.0,29.78,NW,315,0.0,2.0,97,0.00,,,0.08,Rainwise IP-100,2014-01-11 13:41:00,
2014-01-11 08:46:00,45.1,44.0,29.78,SW,225,2.0,5.0,97,0.00,,,0.08,Rainwise IP-100,2014-01-11 13:46:00,
2014-01-11 08:51:00,45.6,45.0,29.78,SW,225,2.0,7.0,97,0.00,,,0.08,Rainwise IP-100,2014-01-11 13:51:00,
2014-01-11 08:56:00,45.7,45.0,29.78,West,270,2.0,5.0,97,0.00,,,0.08,Rainwise IP-100,2014-01-11 13:56:00,
2014-01-11 09:01:00,45.9,45.0,29.78,West,270,1.0,7.0,97,0.00,,,0.08,Rainwise IP-100,2014-01-11 14:01:00,
2014-01-11 09:06:00,45.9,45.0,29.78,SE,135,1.0,4.0,97,0.00,,,0.08,Rainwise IP-100,2014-01-11 14:06:00,
2014-01-11 09:11:00,45.9,45.0,29.78,NW,315,1.0,4.0,97,0.00,,,0.08,Rainwise IP-100,2014-01-11 14:11:00,
2014-01-11 09:17:00,46.3,45.0,29.77,SSE,157,4.0,5.0,97,0.00,,,0.08,Rainwise IP-100,2014-01-11 14:17:00,
2014-01-11 09:22:00,46.5,46.0,29.77,SE,135,1.0,5.0,97,0.00,,,0.08,Rainwise IP-100,2014-01-11 14:22:00,
2014-01-11 09:27:00,46.3,45.0,29.77,WSW,247,3.0,5.0,97,0.00,,,0.08,Rainwise IP-100,2014-01-11 14:27:00,
2014-01-11 09:32:00,46.5,46.0,29.76,South,180,6.0,6.0,96,0.00,,,0.08,Rainwise IP-100,2014-01-11 14:32:00,
2014-01-11 09:37:00,45.9,45.0,29.76,ESE,112,2.0,6.0,97,0.00,,,0.08,Rainwise IP-100,2014-01-11 14:37:00,
2014-01-11 09:42:00,46.5,46.0,29.75,South,180,2.0,9.0,97,0.00,,,0.08,Rainwise IP-100,2014-01-11 14:42:00,
2014-01-11 09:47:00,46.9,46.0,29.74,SE,135,2.0,9.0,97,0.00,,,0.08,Rainwise IP-100,2014-01-11 14:47:00,
2014-01-11 09:52:00,47.2,46.0,29.75,SSE,157,5.0,16.0,96,0.00,,,0.08,Rainwise IP-100,2014-01-11 14:52:00,
2014-01-11 09:57:00,47.5,47.0,29.74,North,360,2.0,7.0,96,0.00,,,0.08,Rainwise IP-100,2014-01-11 14:57:00,
2014-01-11 10:02:00,47.8,46.0,29.74,SE,135,1.0,7.0,95,0.00,,,0.08,Rainwise IP-100,2014-01-11 15:02:00,
2014-01-11 10:07:00,47.9,47.0,29.73,SW,225,6.0,11.0,95,0.00,,,0.08,Rainwise IP-100,2014-01-11 15:07:00,
2014-01-11 10:12:00,48.1,47.0,29.72,SSW,202,2.0,6.0,95,0.00,,,0.08,Rainwise IP-100,2014-01-11 15:12:00,
2014-01-11 10:18:00,48.2,47.0,29.71,ENE,67,2.0,10.0,95,0.00,,,0.08,Rainwise IP-100,2014-01-11 15:18:00,
2014-01-11 10:23:00,48.5,47.0,29.71,West,270,1.0,6.0,95,0.00,,,0.08,Rainwise IP-100,2014-01-11 15:23:00,
2014-01-11 10:28:00,48.9,47.0,29.70,SW,225,1.0,6.0,94,0.00,,,0.08,Rainwise IP-100,2014-01-11 15:28:00,
2014-01-11 10:33:00,49.1,47.0,29.70,West,270,8.0,12.0,94,0.00,,,0.08,Rainwise IP-100,2014-01-11 15:33:00,
2014-01-11 10:38:00,49.4,47.0,29.69,SW,225,9.0,9.0,93,0.00,,,0.08,Rainwise IP-100,2014-01-11 15:38:00,
2014-01-11 10:43:00,49.4,47.0,29.69,SE,135,2.0,11.0,93,0.00,,,0.08,Rainwise IP-100,2014-01-11 15:43:00,
2014-01-11 10:48:00,49.3,47.0,29.69,SW,225,4.0,11.0,94,0.00,,,0.08,Rainwise IP-100,2014-01-11 15:48:00,
2014-01-11 10:53:00,49.3,47.0,29.69,SW,225,4.0,9.0,94,0.00,,,0.08,Rainwise IP-100,2014-01-11 15:53:00,
2014-01-11 10:58:00,49.4,47.0,29.69,South,180,5.0,19.0,94,0.00,,,0.08,Rainwise IP-100,2014-01-11 15:58:00,
2014-01-11 11:03:00,49.4,47.0,29.68,South,180,6.0,12.0,94,0.00,,,0.08,Rainwise IP-100,2014-01-11 16:03:00,
2014-01-11 11:08:00,49.0,47.0,29.67,SSW,202,3.0,10.0,95,0.06,,,0.09,Rainwise IP-100,2014-01-11 16:08:00,
2014-01-11 11:13:00,48.8,48.0,29.66,South,180,3.0,10.0,97,0.12,,,0.10,Rainwise IP-100,2014-01-11 16:13:00,
2014-01-11 11:19:00,48.7,48.0,29.66,SE,135,3.0,9.0,97,0.06,,,0.10,Rainwise IP-100,2014-01-11 16:19:00,
2014-01-11 11:24:00,48.5,48.0,29.65,SSE,157,2.0,6.0,97,0.00,,,0.10,Rainwise IP-100,2014-01-11 16:24:00,
2014-01-11 11:29:00,48.4,47.0,29.64,SSW,202,4.0,5.0,97,0.00,,,0.10,Rainwise IP-100,2014-01-11 16:29:00,
2014-01-11 11:34:00,48.5,48.0,29.64,SW,225,2.0,7.0,97,0.00,,,0.10,Rainwise IP-100,2014-01-11 16:34:00,
2014-01-11 11:39:00,48.7,48.0,29.62,WNW,292,1.0,11.0,97,0.00,,,0.10,Rainwise IP-100,2014-01-11 16:39:00,
2014-01-11 11:44:00,48.8,48.0,29.63,WSW,247,3.0,7.0,97,0.00,,,0.10,Rainwise IP-100,2014-01-11 16:44:00,
2014-01-11 11:49:00,48.9,48.0,29.62,South,180,2.0,8.0,97,0.00,,,0.10,Rainwise IP-100,2014-01-11 16:49:00,
2014-01-11 11:54:00,48.7,48.0,29.61,South,180,2.0,6.0,97,0.06,,,0.11,Rainwise IP-100,2014-01-11 16:54:00,
2014-01-11 11:59:00,48.5,48.0,29.62,SW,225,1.0,11.0,97,0.12,,,0.12,Rainwise IP-100,2014-01-11 16:59:00,
2014-01-11 12:04:00,48.5,48.0,29.59,SE,135,2.0,19.0,97,0.24,,,0.15,Rainwise IP-100,2014-01-11 17:04:00,
2014-01-11 12:09:00,48.7,48.0,29.58,SSE,157,3.0,9.0,97,0.18,,,0.15,Rainwise IP-100,2014-01-11 17:09:00,
2014-01-11 12:14:00,48.8,48.0,29.57,South,180,1.0,7.0,97,0.00,,,0.15,Rainwise IP-100,2014-01-11 17:14:00,
2014-01-11 12:20:00,48.9,48.0,29.56,SW,225,2.0,5.0,97,0.06,,,0.16,Rainwise IP-100,2014-01-11 17:20:00,
2014-01-11 12:25:00,48.7,48.0,29.56,NW,315,2.0,4.0,97,0.06,,,0.16,Rainwise IP-100,2014-01-11 17:25:00,
2014-01-11 12:30:00,48.7,48.0,29.54,NW,315,1.0,5.0,97,0.00,,,0.16,Rainwise IP-100,2014-01-11 17:30:00,
2014-01-11 12:35:00,48.7,48.0,29.54,NW,315,2.0,6.0,97,0.00,,,0.16,Rainwise IP-100,2014-01-11 17:35:00,
2014-01-11 12:40:00,48.8,48.0,29.53,NW,315,2.0,3.0,97,0.00,,,0.16,Rainwise IP-100,2014-01-11 17:40:00,
2014-01-11 12:45:00,48.7,48.0,29.53,WNW,292,1.0,3.0,97,0.12,,,0.18,Rainwise IP-100,2014-01-11 17:45:00,
2014-01-11 12:50:00,48.7,48.0,29.53,WNW,292,0.0,2.0,97,0.18,,,0.19,Rainwise IP-100,2014-01-11 17:50:00,
2014-01-11 12:55:00,48.8,48.0,29.52,SW,225,1.0,3.0,97,0.12,,,0.20,Rainwise IP-100,2014-01-11 17:55:00,
2014-01-11 13:00:00,49.5,49.0,29.52,NW,315,2.0,4.0,97,0.12,,,0.21,Rainwise IP-100,2014-01-11 18:00:00,
2014-01-11 13:05:00,49.9,49.0,29.52,SSW,202,2.0,4.0,97,0.06,,,0.21,Rainwise IP-100,2014-01-11 18:05:00,
2014-01-11 13:10:00,50.1,49.0,29.51,West,270,2.0,4.0,97,0.00,,,0.21,Rainwise IP-100,2014-01-11 18:10:00,
2014-01-11 13:15:00,50.4,50.0,29.51,SW,225,0.0,5.0,97,0.06,,,0.23,Rainwise IP-100,2014-01-11 18:15:00,
2014-01-11 13:21:00,50.3,49.0,29.50,WSW,247,2.0,5.0,97,0.18,,,0.25,Rainwise IP-100,2014-01-11 18:21:00,
2014-01-11 13:26:00,50.5,50.0,29.52,West,270,2.0,9.0,97,0.24,,,0.26,Rainwise IP-100,2014-01-11 18:26:00,
2014-01-11 13:31:00,50.4,50.0,29.52,NW,315,1.0,8.0,97,0.24,,,0.28,Rainwise IP-100,2014-01-11 18:31:00,
2014-01-11 13:36:00,50.3,49.0,29.53,NE,45,2.0,4.0,97,0.18,,,0.30,Rainwise IP-100,2014-01-11 18:36:00,
2014-01-11 13:41:00,49.9,49.0,29.53,WNW,292,5.0,7.0,97,0.18,,,0.31,Rainwise IP-100,2014-01-11 18:41:00,
2014-01-11 13:46:00,49.6,49.0,29.53,WSW,247,2.0,8.0,97,0.24,,,0.34,Rainwise IP-100,2014-01-11 18:46:00,
2014-01-11 13:51:00,49.5,49.0,29.52,SW,225,0.0,4.0,97,0.30,,,0.36,Rainwise IP-100,2014-01-11 18:51:00,
2014-01-11 13:56:00,49.3,48.0,29.53,SSW,202,2.0,6.0,97,0.18,,,0.37,Rainwise IP-100,2014-01-11 18:56:00,
2014-01-11 14:02:00,49.3,48.0,29.53,SW,225,0.0,3.0,97,0.12,,,0.38,Rainwise IP-100,2014-01-11 19:02:00,
2014-01-11 14:07:00,49.2,48.0,29.53,South,180,0.0,2.0,97,0.12,,,0.39,Rainwise IP-100,2014-01-11 19:07:00,
2014-01-11 14:12:00,48.8,48.0,29.52,ENE,67,0.0,2.0,97,0.12,,,0.40,Rainwise IP-100,2014-01-11 19:12:00,
2014-01-11 14:17:00,48.3,47.0,29.51,NNE,22,1.0,0.0,97,0.12,,,0.42,Rainwise IP-100,2014-01-11 19:17:00,
2014-01-11 14:23:00,48.3,47.0,29.52,NW,315,1.0,2.0,97,0.12,,,0.43,Rainwise IP-100,2014-01-11 19:23:00,
2014-01-11 14:28:00,47.9,47.0,29.51,North,360,1.0,2.0,97,0.18,,,0.44,Rainwise IP-100,2014-01-11 19:28:00,
2014-01-11 14:33:00,47.6,47.0,29.51,North,360,0.0,2.0,97,0.18,,,0.45,Rainwise IP-100,2014-01-11 19:33:00,
2014-01-11 14:38:00,46.9,46.0,29.51,North,360,1.0,2.0,97,0.18,,,0.47,Rainwise IP-100,2014-01-11 19:38:00,
2014-01-11 14:43:00,46.8,46.0,29.51,North,360,0.0,2.0,97,0.18,,,0.48,Rainwise IP-100,2014-01-11 19:43:00,
2014-01-11 14:48:00,46.4,45.0,29.50,North,360,0.0,2.0,97,0.18,,,0.50,Rainwise IP-100,2014-01-11 19:48:00,
2014-01-11 14:53:00,45.8,45.0,29.50,North,360,0.0,0.0,97,0.18,,,0.51,Rainwise IP-100,2014-01-11 19:53:00,
2014-01-11 14:58:00,45.3,44.0,29.49,North,360,2.0,2.0,97,0.18,,,0.53,Rainwise IP-100,2014-01-11 19:58:00,
2014-01-11 15:03:00,45.2,44.0,29.48,North,360,0.0,2.0,97,0.18,,,0.54,Rainwise IP-100,2014-01-11 20:03:00,
2014-01-11 15:08:00,45.4,44.0,29.48,North,360,0.0,0.0,97,0.12,,,0.55,Rainwise IP-100,2014-01-11 20:08:00,
2014-01-11 15:13:00,45.6,45.0,29.47,North,360,1.0,0.0,97,0.12,,,0.56,Rainwise IP-100,2014-01-11 20:13:00,
2014-01-11 15:18:00,45.6,45.0,29.47,North,360,0.0,2.0,97,0.12,,,0.57,Rainwise IP-100,2014-01-11 20:18:00,
2014-01-11 15:24:00,46.3,45.0,29.48,North,360,0.0,2.0,97,0.12,,,0.58,Rainwise IP-100,2014-01-11 20:24:00,
2014-01-11 15:29:00,46.0,45.0,29.48,North,360,0.0,0.0,97,0.06,,,0.58,Rainwise IP-100,2014-01-11 20:29:00,
2014-01-11 15:34:00,44.5,44.0,29.46,ESE,112,1.0,2.0,96,0.06,,,0.59,Rainwise IP-100,2014-01-11 20:34:00,
2014-01-11 15:40:00,44.1,43.0,29.46,West,270,2.0,2.0,96,0.12,,,0.60,Rainwise IP-100,2014-01-11 20:40:00,
2014-01-11 15:45:00,44.2,43.0,29.45,West,270,0.0,2.0,96,0.06,,,0.60,Rainwise IP-100,2014-01-11 20:45:00,
2014-01-11 15:50:00,43.7,43.0,29.45,West,270,0.0,2.0,96,0.00,,,0.60,Rainwise IP-100,2014-01-11 20:50:00,
2014-01-11 15:55:00,43.4,42.0,29.44,West,270,0.0,2.0,96,0.00,,,0.60,Rainwise IP-100,2014-01-11 20:55:00,
2014-01-11 16:00:00,43.5,43.0,29.44,West,270,0.0,2.0,96,0.00,,,0.60,Rainwise IP-100,2014-01-11 21:00:00,
2014-01-11 16:05:00,42.6,42.0,29.43,North,360,1.0,2.0,96,0.06,,,0.61,Rainwise IP-100,2014-01-11 21:05:00,
2014-01-11 16:10:00,44.4,43.0,29.42,NW,315,2.0,4.0,96,0.12,,,0.62,Rainwise IP-100,2014-01-11 21:10:00,
2014-01-11 16:15:00,44.1,43.0,29.41,NW,315,0.0,4.0,96,0.06,,,0.62,Rainwise IP-100,2014-01-11 21:15:00,
2014-01-11 16:21:00,43.3,42.0,29.40,South,180,0.0,3.0,96,0.06,,,0.63,Rainwise IP-100,2014-01-11 21:21:00,
2014-01-11 16:26:00,42.9,42.0,29.38,West,270,1.0,2.0,96,0.06,,,0.63,Rainwise IP-100,2014-01-11 21:26:00,
2014-01-11 16:31:00,43.4,42.0,29.38,NNE,22,3.0,3.0,96,0.00,,,0.63,Rainwise IP-100,2014-01-11 21:31:00,
2014-01-11 16:36:00,43.3,42.0,29.37,North,360,1.0,3.0,96,0.00,,,0.63,Rainwise IP-100,2014-01-11 21:36:00,
2014-01-11 16:39:00,43.6,43.0,29.35,NW,315,1.0,4.0,96,0.00,,,0.63,Rainwise IP-100,2014-01-11 21:39:00,
2014-01-11 16:44:00,44.8,44.0,29.36,NW,315,1.0,4.0,96,0.00,,,0.63,Rainwise IP-100,2014-01-11 21:44:00,
2014-01-11 16:49:00,44.9,44.0,29.37,North,360,0.0,5.0,96,0.00,,,0.63,Rainwise IP-100,2014-01-11 21:49:00,
2014-01-11 16:54:00,43.9,43.0,29.36,NW,315,2.0,5.0,96,0.00,,,0.63,Rainwise IP-100,2014-01-11 21:54:00,
2014-01-11 16:59:00,43.9,43.0,29.36,NNW,337,2.0,2.0,96,0.00,,,0.63,Rainwise IP-100,2014-01-11 21:59:00,
2014-01-11 17:04:00,44.1,43.0,29.36,NNW,337,1.0,3.0,96,0.00,,,0.63,Rainwise IP-100,2014-01-11 22:04:00,
2014-01-11 17:09:00,43.1,42.0,29.37,SE,135,0.0,2.0,96,0.00,,,0.63,Rainwise IP-100,2014-01-11 22:09:00,
2014-01-11 17:14:00,41.8,41.0,29.38,SE,135,1.0,2.0,96,0.00,,,0.63,Rainwise IP-100,2014-01-11 22:14:00,
2014-01-11 17:19:00,41.5,41.0,29.38,SE,135,0.0,3.0,96,0.00,,,0.63,Rainwise IP-100,2014-01-11 22:19:00,
2014-01-11 17:25:00,41.6,41.0,29.37,SE,135,0.0,0.0,96,0.00,,,0.63,Rainwise IP-100,2014-01-11 22:25:00,
2014-01-11 17:30:00,41.6,41.0,29.37,North,360,0.0,2.0,96,0.00,,,0.63,Rainwise IP-100,2014-01-11 22:30:00,
2014-01-11 17:35:00,41.5,41.0,29.36,North,360,2.0,2.0,96,0.00,,,0.63,Rainwise IP-100,2014-01-11 22:35:00,
2014-01-11 17:40:00,41.5,41.0,29.36,North,360,0.0,2.0,96,0.00,,,0.63,Rainwise IP-100,2014-01-11 22:40:00,
2014-01-11 17:45:00,41.6,41.0,29.36,SW,225,2.0,2.0,96,0.00,,,0.63,Rainwise IP-100,2014-01-11 22:45:00,
2014-01-11 17:50:00,41.4,40.0,29.35,SSW,202,0.0,2.0,96,0.00,,,0.63,Rainwise IP-100,2014-01-11 22:50:00,
2014-01-11 17:55:00,41.2,40.0,29.34,South,180,0.0,0.0,96,0.00,,,0.63,Rainwise IP-100,2014-01-11 22:55:00,
2014-01-11 18:00:00,41.2,40.0,29.34,East,90,0.0,2.0,96,0.00,,,0.63,Rainwise IP-100,2014-01-11 23:00:00,
2014-01-11 18:05:00,41.4,40.0,29.34,North,360,0.0,2.0,96,0.00,,,0.63,Rainwise IP-100,2014-01-11 23:05:00,
2014-01-11 18:10:00,41.9,41.0,29.33,North,360,0.0,2.0,96,0.00,,,0.63,Rainwise IP-100,2014-01-11 23:10:00,
2014-01-11 18:15:00,42.4,41.0,29.34,North,360,0.0,2.0,96,0.00,,,0.63,Rainwise IP-100,2014-01-11 23:15:00,
2014-01-11 18:20:00,43.2,42.0,29.34,ESE,112,0.0,2.0,96,0.00,,,0.63,Rainwise IP-100,2014-01-11 23:20:00,
2014-01-11 18:26:00,44.3,43.0,29.33,NW,315,1.0,2.0,96,0.00,,,0.63,Rainwise IP-100,2014-01-11 23:26:00,
2014-01-11 18:31:00,43.9,43.0,29.32,NNW,337,2.0,2.0,96,0.00,,,0.63,Rainwise IP-100,2014-01-11 23:31:00,
2014-01-11 18:36:00,44.0,43.0,29.31,NNW,337,2.0,2.0,96,0.00,,,0.63,Rainwise IP-100,2014-01-11 23:36:00,
2014-01-11 18:41:00,43.8,43.0,29.31,NNW,337,0.0,2.0,96,0.00,,,0.63,Rainwise IP-100,2014-01-11 23:41:00,
2014-01-11 18:46:00,44.7,44.0,29.31,SE,135,2.0,7.0,96,0.00,,,0.63,Rainwise IP-100,2014-01-11 23:46:00,
2014-01-11 18:51:00,45.8,45.0,29.31,South,180,2.0,6.0,97,0.00,,,0.63,Rainwise IP-100,2014-01-11 23:51:00,
2014-01-11 18:56:00,46.7,46.0,29.32,South,180,2.0,5.0,97,0.00,,,0.63,Rainwise IP-100,2014-01-11 23:56:00,
2014-01-11 19:01:00,47.3,46.0,29.32,West,270,1.0,6.0,97,0.00,,,0.63,Rainwise IP-100,2014-01-12 00:01:00,
2014-01-11 19:06:00,47.5,47.0,29.32,West,270,1.0,9.0,97,0.00,,,0.63,Rainwise IP-100,2014-01-12 00:06:00,
2014-01-11 19:11:00,48.1,47.0,29.31,SE,135,2.0,9.0,97,0.00,,,0.63,Rainwise IP-100,2014-01-12 00:11:00,
2014-01-11 19:16:00,48.6,48.0,29.31,South,180,2.0,7.0,97,0.00,,,0.63,Rainwise IP-100,2014-01-12 00:16:00,
2014-01-11 19:21:00,48.9,48.0,29.31,WSW,247,1.0,6.0,97,0.00,,,0.63,Rainwise IP-100,2014-01-12 00:21:00,
2014-01-11 19:27:00,48.7,48.0,29.31,South,180,1.0,5.0,97,0.00,,,0.63,Rainwise IP-100,2014-01-12 00:27:00,
2014-01-11 19:32:00,48.6,48.0,29.32,SW,225,2.0,3.0,97,0.00,,,0.63,Rainwise IP-100,2014-01-12 00:32:00,
2014-01-11 19:37:00,48.6,48.0,29.32,SSW,202,2.0,11.0,97,0.06,,,0.64,Rainwise IP-100,2014-01-12 00:37:00,
2014-01-11 19:42:00,48.6,48.0,29.31,SE,135,1.0,11.0,97,0.06,,,0.64,Rainwise IP-100,2014-01-12 00:42:00,
2014-01-11 19:47:00,48.6,48.0,29.30,SSE,157,3.0,9.0,97,0.00,,,0.64,Rainwise IP-100,2014-01-12 00:47:00,
2014-01-11 19:52:00,48.5,48.0,29.30,SE,135,2.0,6.0,97,0.00,,,0.64,Rainwise IP-100,2014-01-12 00:52:00,
2014-01-11 19:57:00,48.4,47.0,29.30,South,180,4.0,7.0,97,0.06,,,0.65,Rainwise IP-100,2014-01-12 00:57:00,
2014-01-11 20:02:00,48.2,47.0,29.30,SSE,157,2.0,7.0,97,0.06,,,0.65,Rainwise IP-100,2014-01-12 01:02:00,
2014-01-11 20:07:00,47.9,47.0,29.29,SSE,157,4.0,6.0,97,0.00,,,0.65,Rainwise IP-100,2014-01-12 01:07:00,
2014-01-11 20:12:00,47.9,47.0,29.29,SSE,157,3.0,6.0,97,0.00,,,0.65,Rainwise IP-100,2014-01-12 01:12:00,
2014-01-11 20:17:00,48.0,47.0,29.29,SW,225,4.0,7.0,97,0.00,,,0.65,Rainwise IP-100,2014-01-12 01:17:00,
2014-01-11 20:22:00,48.4,47.0,29.28,South,180,2.0,12.0,97,0.00,,,0.65,Rainwise IP-100,2014-01-12 01:22:00,
2014-01-11 20:28:00,48.3,47.0,29.28,South,180,4.0,8.0,97,0.00,,,0.65,Rainwise IP-100,2014-01-12 01:28:00,
2014-01-11 20:33:00,48.2,47.0,29.28,SE,135,4.0,6.0,97,0.00,,,0.65,Rainwise IP-100,2014-01-12 01:33:00,
2014-01-11 20:38:00,48.2,47.0,29.27,South,180,4.0,6.0,97,0.00,,,0.65,Rainwise IP-100,2014-01-12 01:38:00,
2014-01-11 20:43:00,47.9,47.0,29.27,SW,225,0.0,7.0,97,0.06,,,0.66,Rainwise IP-100,2014-01-12 01:43:00,
2014-01-11 20:48:00,47.9,47.0,29.27,SW,225,3.0,9.0,97,0.06,,,0.66,Rainwise IP-100,2014-01-12 01:48:00,
2014-01-11 20:53:00,48.2,47.0,29.28,SSW,202,2.0,8.0,97,0.06,,,0.67,Rainwise IP-100,2014-01-12 01:53:00,
2014-01-11 20:58:00,48.3,47.0,29.28,SW,225,2.0,9.0,97,0.12,,,0.68,Rainwise IP-100,2014-01-12 01:58:00,
2014-01-11 21:03:00,48.3,47.0,29.31,WSW,247,2.0,17.0,97,0.18,,,0.70,Rainwise IP-100,2014-01-12 02:03:00,
2014-01-11 21:08:00,47.1,46.0,29.32,South,180,1.0,24.0,96,0.18,,,0.71,Rainwise IP-100,2014-01-12 02:08:00,
2014-01-11 21:13:00,46.2,44.0,29.32,South,180,4.0,14.0,94,0.12,,,0.72,Rainwise IP-100,2014-01-12 02:13:00,
2014-01-11 21:18:00,45.6,44.0,29.32,NW,315,6.0,12.0,95,0.06,,,0.72,Rainwise IP-100,2014-01-12 02:18:00,
2014-01-11 21:23:00,45.2,44.0,29.32,West,270,7.0,14.0,95,0.00,,,0.72,Rainwise IP-100,2014-01-12 02:23:00,
2014-01-11 21:29:00,44.9,43.0,29.33,SW,225,3.0,14.0,94,0.00,,,0.72,Rainwise IP-100,2014-01-12 02:29:00,
2014-01-11 21:34:00,44.7,44.0,29.32,SE,135,2.0,13.0,95,0.00,,,0.72,Rainwise IP-100,2014-01-12 02:34:00,
2014-01-11 21:39:00,44.3,43.0,29.33,SE,135,3.0,6.0,96,0.00,,,0.72,Rainwise IP-100,2014-01-12 02:39:00,
2014-01-11 21:44:00,44.2,43.0,29.34,West,270,8.0,13.0,96,0.00,,,0.72,Rainwise IP-100,2014-01-12 02:44:00,
2014-01-11 21:49:00,44.1,42.0,29.32,South,180,5.0,12.0,94,0.00,,,0.72,Rainwise IP-100,2014-01-12 02:49:00,
2014-01-11 21:54:00,43.8,42.0,29.34,West,270,1.0,14.0,93,0.00,,,0.72,Rainwise IP-100,2014-01-12 02:54:00,
2014-01-11 21:59:00,43.5,42.0,29.33,South,180,5.0,10.0,92,0.00,,,0.72,Rainwise IP-100,2014-01-12 02:59:00,
2014-01-11 22:04:00,43.3,40.0,29.32,SW,225,5.0,9.0,91,0.00,,,0.72,Rainwise IP-100,2014-01-12 03:04:00,
2014-01-11 22:09:00,43.0,41.0,29.33,South,180,4.0,11.0,92,0.00,,,0.72,Rainwise IP-100,2014-01-12 03:09:00,
2014-01-11 22:14:00,42.8,41.0,29.33,SW,225,0.0,12.0,92,0.00,,,0.72,Rainwise IP-100,2014-01-12 03:14:00,
2014-01-11 22:19:00,42.6,40.0,29.32,West,270,1.0,12.0,90,0.00,,,0.72,Rainwise IP-100,2014-01-12 03:19:00,
2014-01-11 22:24:00,42.2,40.0,29.32,SSW,202,4.0,6.0,92,0.00,,,0.72,Rainwise IP-100,2014-01-12 03:24:00,
2014-01-11 22:30:00,41.9,40.0,29.33,SSW,202,2.0,7.0,94,0.00,,,0.72,Rainwise IP-100,2014-01-12 03:30:00,
2014-01-11 22:35:00,41.4,40.0,29.33,WSW,247,2.0,7.0,95,0.00,,,0.73,Rainwise IP-100,2014-01-12 03:35:00,
2014-01-11 22:40:00,41.2,40.0,29.34,SW,225,2.0,9.0,95,0.06,,,0.73,Rainwise IP-100,2014-01-12 03:40:00,
2014-01-11 22:45:00,41.0,40.0,29.33,South,180,6.0,7.0,95,0.00,,,0.73,Rainwise IP-100,2014-01-12 03:45:00,
2014-01-11 22:50:00,40.9,40.0,29.33,SSW,202,8.0,9.0,95,0.00,,,0.73,Rainwise IP-100,2014-01-12 03:50:00,
2014-01-11 22:55:00,40.9,40.0,29.34,SW,225,2.0,14.0,95,0.00,,,0.73,Rainwise IP-100,2014-01-12 03:55:00,
2014-01-11 23:00:00,40.8,40.0,29.34,SSE,157,5.0,7.0,95,0.00,,,0.73,Rainwise IP-100,2014-01-12 04:00:00,
2014-01-11 23:05:00,40.8,39.0,29.34,SW,225,3.0,11.0,94,0.00,,,0.73,Rainwise IP-100,2014-01-12 04:05:00,
2014-01-11 23:10:00,40.6,40.0,29.34,WSW,247,18.0,18.0,96,0.00,,,0.74,Rainwise IP-100,2014-01-12 04:10:00,
2014-01-11 23:15:00,40.6,39.0,29.34,SSW,202,4.0,18.0,94,0.06,,,0.74,Rainwise IP-100,2014-01-12 04:15:00,
2014-01-11 23:20:00,40.3,39.0,29.34,SW,225,6.0,11.0,96,0.06,,,0.74,Rainwise IP-100,2014-01-12 04:20:00,
2014-01-11 23:25:00,40.0,39.0,29.33,SSE,157,2.0,9.0,96,0.00,,,0.74,Rainwise IP-100,2014-01-12 04:25:00,
2014-01-11 23:31:00,39.8,39.0,29.34,SW,225,2.0,7.0,96,0.00,,,0.74,Rainwise IP-100,2014-01-12 04:31:00,
2014-01-11 23:36:00,39.7,39.0,29.34,West,270,6.0,15.0,95,0.00,,,0.74,Rainwise IP-100,2014-01-12 04:36:00,
2014-01-11 23:41:00,39.6,39.0,29.34,SW,225,4.0,17.0,96,0.00,,,0.74,Rainwise IP-100,2014-01-12 04:41:00,
2014-01-11 23:46:00,39.4,38.0,29.34,SW,225,4.0,16.0,96,0.00,,,0.74,Rainwise IP-100,2014-01-12 04:46:00,
2014-01-11 23:51:00,39.2,38.0,29.35,SW,225,4.0,12.0,95,0.00,,,0.74,Rainwise IP-100,2014-01-12 04:51:00,
2014-01-11 23:56:00,38.9,38.0,29.35,South,180,6.0,16.0,96,0.00,,,0.74,Rainwise IP-100,2014-01-12 04:56:00,